Time;durP1;ratioP1;P1;durP2;ratioP2;P2;SDS_P1;SDS_P2;PMS_P1;PMS_P2;Temp;Humidity;BMP_temperature;BMP_pressure;BME280_temperature;BME280_humidity;BME280_pressure;Samples;Min_cycle;Max_cycle;Signal;HPM_P1;HPM_P2
2021/08/20 00:00:34;;;;;;;;;;;;;;;27.58;40.84;97380.38;5000452;28;1130;-61
2021/08/20 00:02:59;;;;;;;;;;;;;;;27.48;41.09;97377.69;4999964;28;1193;-62
2021/08/20 00:05:25;;;;;;;;;;;;;;;27.36;41.29;97375.31;5000873;28;1294;-61
2021/08/20 00:07:50;;;;;;;;;;;;;;;27.59;40.88;97379.38;4999197;28;1555;-62
2021/08/20 00:10:16;;;;;;;;;;;;;;;27.31;41.28;97375.72;4999130;28;1272;-62
2021/08/20 00:12:41;;;;;;;;;;;;;;;27.33;41.04;97375.56;5000351;28;1645;-62
2021/08/20 00:15:06;;;;;;;;;;;;;;;27.16;41.58;97374.41;5000606;28;1354;-61
2021/08/20 00:17:32;;;;;;;;;;;;;;;27.48;40.86;97372.38;4999600;28;1963;-62
2021/08/20 00:19:57;;;;;;;;;;;;;;;27.63;40.58;97370.19;4999169;28;1581;-62
2021/08/20 00:22:22;;;;;;;;;;;;;;;27.67;40.54;97368.13;5000669;28;1263;-62
2021/08/20 00:24:48;;;;;;;;;;;;;;;27.56;40.62;97371.69;5001410;28;1346;-61
2021/08/20 00:27:13;;;;;;;;;;;;;;;27.51;40.84;97372.13;5001203;28;1592;-60
2021/08/20 00:29:38;;;;;;;;;;;;;;;27.41;41.02;97371.28;5002536;28;1233;-61
2021/08/20 00:32:04;;;;;;;;;;;;;;;27.53;40.98;97361.38;4982949;28;1224;-61
2021/08/20 00:34:29;;;;;;;;;;;;;;;27.51;40.86;97363.34;5000069;28;1542;-63
2021/08/20 00:36:54;;;;;;;;;;;;;;;27.69;40.44;97361.72;5000426;28;1978;-62
2021/08/20 00:39:19;;;;;;;;;;;;;;;27.33;41.20;97365.81;4999965;28;1201;-62
2021/08/20 00:41:45;;;;;;;;;;;;;;;27.47;41.11;97372.53;5000354;28;1600;-61
2021/08/20 00:44:10;;;;;;;;;;;;;;;27.51;40.91;97366.00;5000333;28;1565;-61
2021/08/20 00:46:36;;;;;;;;;;;;;;;27.60;40.55;97362.50;4996635;28;1641;-62
2021/08/20 00:49:01;;;;;;;;;;;;;;;27.58;40.68;97363.63;5002066;28;1033;-62
2021/08/20 00:51:27;;;;;;;;;;;;;;;27.52;40.84;97368.50;4999685;28;1196;-63
2021/08/20 00:53:52;;;;;;;;;;;;;;;27.64;40.46;97369.19;5000007;28;1635;-63
2021/08/20 00:56:18;;;;;;;;;;;;;;;27.52;40.89;97367.66;5000617;28;1902;-61
2021/08/20 00:58:43;;;;;;;;;;;;;;;27.12;41.56;97360.63;4980443;28;1623;-62
2021/08/20 01:01:08;;;;;;;;;;;;;;;27.08;41.76;97367.13;4993506;28;1335;-63
2021/08/20 01:03:33;;;;;;;;;;;;;;;27.16;41.52;97363.81;4994775;28;1557;-60
2021/08/20 01:05:59;;;;;;;;;;;;;;;27.27;41.28;97361.91;4999419;28;1383;-60
2021/08/20 01:08:25;;;;;;;;;;;;;;;27.43;40.98;97358.72;4999472;28;1087;-61
2021/08/20 01:10:50;;;;;;;;;;;;;;;27.33;41.23;97362.31;4998947;28;1189;-61
2021/08/20 01:13:16;;;;;;;;;;;;;;;27.46;41.06;97361.09;4998727;28;1799;-63
2021/08/20 01:15:41;;;;;;;;;;;;;;;27.53;40.59;97356.94;4998711;28;1387;-62
2021/08/20 01:18:07;;;;;;;;;;;;;;;27.44;40.98;97364.88;4996635;28;1966;-59
2021/08/20 01:20:32;;;;;;;;;;;;;;;27.67;40.46;97355.72;4994017;28;1621;-61
2021/08/20 01:22:57;;;;;;;;;;;;;;;27.92;39.98;97356.97;5001103;28;1034;-61
2021/08/20 01:25:22;;;;;;;;;;;;;;;27.48;40.99;97359.13;4999936;28;1269;-62
2021/08/20 01:27:48;;;;;;;;;;;;;;;27.50;41.02;97356.38;4981901;28;1670;-61
2021/08/20 01:30:13;;;;;;;;;;;;;;;27.46;40.91;97350.50;5000345;28;1360;-61
2021/08/20 01:32:38;;;;;;;;;;;;;;;27.28;41.55;97354.81;5002304;28;1181;-62
2021/08/20 01:35:04;;;;;;;;;;;;;;;27.37;41.21;97353.97;4997826;28;1423;-62
2021/08/20 01:37:29;;;;;;;;;;;;;;;27.52;40.58;97349.97;4999335;28;1969;-60
2021/08/20 01:39:54;;;;;;;;;;;;;;;27.55;40.88;97348.84;4997901;28;1521;-62
2021/08/20 01:42:20;;;;;;;;;;;;;;;27.66;40.49;97353.19;5000054;28;1578;-61
2021/08/20 01:44:45;;;;;;;;;;;;;;;27.46;40.84;97350.50;4999778;28;1340;-61
2021/08/20 01:47:10;;;;;;;;;;;;;;;27.37;41.36;97348.69;4999023;28;1331;-61
2021/08/20 01:49:37;;;;;;;;;;;;;;;27.74;40.35;97350.72;5000418;28;1173;-63
2021/08/20 01:52:02;;;;;;;;;;;;;;;27.58;40.94;97350.41;5001497;28;1566;-62
2021/08/20 01:54:27;;;;;;;;;;;;;;;27.51;40.78;97343.00;5002811;28;1330;-62
2021/08/20 01:56:53;;;;;;;;;;;;;;;27.60;40.81;97340.50;5002926;28;1914;-62
2021/08/20 01:59:18;;;;;;;;;;;;;;;27.59;40.58;97339.66;5002468;28;1566;-61
2021/08/20 02:01:43;;;;;;;;;;;;;;;27.43;41.03;97340.19;5000895;28;1527;-61
2021/08/20 02:04:08;;;;;;;;;;;;;;;27.61;40.73;97343.00;5000585;28;1689;-64
2021/08/20 02:06:34;;;;;;;;;;;;;;;27.48;40.84;97340.59;5004130;28;1287;-62
2021/08/20 02:08:59;;;;;;;;;;;;;;;27.40;41.26;97344.91;5002503;28;1149;-60
2021/08/20 02:11:24;;;;;;;;;;;;;;;27.11;41.73;97339.59;5000768;28;1673;-61
2021/08/20 02:13:49;;;;;;;;;;;;;;;27.13;41.63;97333.19;5002302;28;1606;-61
2021/08/20 02:16:14;;;;;;;;;;;;;;;27.01;41.82;97334.22;5002451;28;1972;-60
2021/08/20 02:18:40;;;;;;;;;;;;;;;26.99;41.95;97337.00;5003013;28;1225;-61
2021/08/20 02:21:05;;;;;;;;;;;;;;;27.32;41.47;97335.00;5001585;28;1554;-62
2021/08/20 02:23:32;;;;;;;;;;;;;;;27.60;40.91;97340.50;5002326;28;1522;-61
2021/08/20 02:25:57;;;;;;;;;;;;;;;27.59;40.59;97350.25;5003176;28;1261;-61
2021/08/20 02:28:22;;;;;;;;;;;;;;;27.61;40.70;97348.28;5000993;28;1655;-62
2021/08/20 02:30:49;;;;;;;;;;;;;;;27.37;41.13;97337.25;5002198;28;1284;-61
2021/08/20 02:33:15;;;;;;;;;;;;;;;27.45;41.07;97340.06;5004259;28;1124;-62
2021/08/20 02:35:40;;;;;;;;;;;;;;;27.62;40.59;97333.22;5002265;28;1577;-61
2021/08/20 02:38:05;;;;;;;;;;;;;;;27.34;41.00;97340.19;5003551;28;1894;-61
2021/08/20 02:40:30;;;;;;;;;;;;;;;27.51;40.91;97337.69;5001663;28;1285;-62
2021/08/20 02:42:56;;;;;;;;;;;;;;;27.59;40.56;97325.56;5002541;28;1654;-61
2021/08/20 02:45:21;;;;;;;;;;;;;;;27.30;41.24;97336.97;5003063;28;1274;-62
2021/08/20 02:47:47;;;;;;;;;;;;;;;27.35;41.32;97339.22;4999205;28;1570;-62
2021/08/20 02:50:12;;;;;;;;;;;;;;;27.57;41.00;97335.44;5003308;28;1130;-61
2021/08/20 02:52:37;;;;;;;;;;;;;;;27.57;40.73;97327.50;4999356;28;1940;-62
2021/08/20 02:55:03;;;;;;;;;;;;;;;27.56;40.97;97334.63;4999284;28;1657;-60
2021/08/20 02:57:28;;;;;;;;;;;;;;;27.57;40.73;97331.00;5002081;28;1986;-61
2021/08/20 02:59:54;;;;;;;;;;;;;;;27.46;41.12;97331.97;4999611;28;1378;-62
2021/08/20 03:02:19;;;;;;;;;;;;;;;27.82;40.12;97329.66;5002841;28;1168;-63
2021/08/20 03:04:44;;;;;;;;;;;;;;;27.55;40.76;97325.00;5000864;28;1308;-61
2021/08/20 03:07:09;;;;;;;;;;;;;;;27.44;40.98;97330.44;5002322;28;1645;-61
2021/08/20 03:09:34;;;;;;;;;;;;;;;27.39;41.16;97325.53;5000891;28;1536;-63
2021/08/20 03:12:00;;;;;;;;;;;;;;;27.39;41.00;97330.84;5001528;28;1192;-62
2021/08/20 03:14:25;;;;;;;;;;;;;;;27.27;41.53;97329.31;5000858;28;1661;-62
2021/08/20 03:16:50;;;;;;;;;;;;;;;27.46;41.10;97323.19;5002009;28;1981;-61
2021/08/20 03:19:15;;;;;;;;;;;;;;;27.51;40.82;97326.25;5001649;28;1173;-62
2021/08/20 03:21:40;;;;;;;;;;;;;;;27.26;41.48;97319.69;4998666;28;1554;-62
2021/08/20 03:24:06;;;;;;;;;;;;;;;27.44;41.09;97323.34;5001983;28;1042;-61
2021/08/20 03:26:31;;;;;;;;;;;;;;;27.34;40.99;97329.59;5001826;28;1318;-62
2021/08/20 03:28:56;;;;;;;;;;;;;;;27.45;41.09;97334.75;4999233;28;1622;-61
2021/08/20 03:31:21;;;;;;;;;;;;;;;27.43;41.13;97328.78;5002845;28;1188;-61
2021/08/20 03:33:47;;;;;;;;;;;;;;;27.55;40.96;97330.28;5001648;28;1267;-61
2021/08/20 03:36:12;;;;;;;;;;;;;;;27.40;40.90;97329.03;4999935;28;1559;-60
2021/08/20 03:38:37;;;;;;;;;;;;;;;27.45;40.99;97327.66;4984967;28;1914;-62
2021/08/20 03:41:02;;;;;;;;;;;;;;;27.39;40.95;97330.00;5001910;28;1311;-61
2021/08/20 03:43:28;;;;;;;;;;;;;;;27.25;41.42;97339.19;4983412;28;1620;-62
2021/08/20 03:45:53;;;;;;;;;;;;;;;27.61;40.59;97337.69;4998689;28;1529;-61
2021/08/20 03:48:18;;;;;;;;;;;;;;;27.59;40.79;97336.16;5002752;28;1245;-61
2021/08/20 03:50:43;;;;;;;;;;;;;;;27.42;41.03;97348.28;5000756;28;1149;-63
2021/08/20 03:53:08;;;;;;;;;;;;;;;27.58;40.68;97359.19;5000309;28;1515;-62
2021/08/20 03:55:34;;;;;;;;;;;;;;;27.68;40.63;97353.91;5003663;28;1311;-60
2021/08/20 03:58:00;;;;;;;;;;;;;;;27.43;40.72;97345.50;5078877;22;1886;-89
2021/08/20 04:00:25;;;;;;;;;;;;;;;27.23;41.44;97343.78;5076331;28;1116;-89
2021/08/20 04:02:50;;;;;;;;;;;;;;;27.23;41.35;97347.25;5076304;28;1394;-89
2021/08/20 04:05:15;;;;;;;;;;;;;;;27.43;41.20;97350.78;5071627;28;1587;-89
2021/08/20 04:07:41;;;;;;;;;;;;;;;27.47;40.94;97346.03;5066250;28;1219;-89
2021/08/20 04:10:06;;;;;;;;;;;;;;;27.76;40.25;97354.03;5066207;28;1332;-89
2021/08/20 04:12:31;;;;;;;;;;;;;;;27.49;40.98;97363.50;5064633;28;1526;-89
2021/08/20 04:14:56;;;;;;;;;;;;;;;27.11;41.87;97358.94;5030644;28;1450;-90
2021/08/20 04:17:21;;;;;;;;;;;;;;;27.27;41.32;97361.06;5068656;28;1906;-90
2021/08/20 04:19:47;;;;;;;;;;;;;;;27.28;41.36;97362.75;5065707;28;1559;-89
2021/08/20 04:22:12;;;;;;;;;;;;;;;27.51;41.00;97350.94;5067019;28;1125;-90
2021/08/20 04:24:37;;;;;;;;;;;;;;;27.80;40.20;97355.44;5066802;28;1386;-90
2021/08/20 04:27:02;;;;;;;;;;;;;;;27.45;40.73;97359.44;5049207;28;1654;-89
2021/08/20 04:29:28;;;;;;;;;;;;;;;27.31;41.33;97367.75;5065110;28;1858;-90
2021/08/20 04:31:56;;;;;;;;;;;;;;;27.47;41.03;97357.47;5068346;28;1167;-90
2021/08/20 04:34:21;;;;;;;;;;;;;;;27.57;40.81;97359.28;5067978;28;1187;-89
2021/08/20 04:36:46;;;;;;;;;;;;;;;27.71;40.47;97359.75;5031117;28;1906;-89
2021/08/20 04:39:13;;;;;;;;;;;;;;;27.42;41.09;97366.81;5051473;28;950;-90
2021/08/20 04:41:38;;;;;;;;;;;;;;;27.47;40.78;97368.06;5031297;28;1232;-89
2021/08/20 04:44:03;;;;;;;;;;;;;;;27.32;41.45;97373.88;5063356;28;1522;-89
2021/08/20 04:46:28;;;;;;;;;;;;;;;27.45;40.95;97370.03;5068290;28;1439;-89
2021/08/20 04:48:53;;;;;;;;;;;;;;;27.59;40.75;97379.38;5060357;28;1618;-89
2021/08/20 04:51:19;;;;;;;;;;;;;;;27.57;40.72;97369.88;5067508;28;1057;-89
2021/08/20 04:53:44;;;;;;;;;;;;;;;27.23;41.49;97375.53;5070038;28;1229;-89
2021/08/20 04:56:09;;;;;;;;;;;;;;;27.38;40.92;97368.06;5068103;28;1308;-89
2021/08/20 04:58:35;;;;;;;;;;;;;;;27.30;41.08;97374.03;5066798;28;1910;-89
2021/08/20 05:01:00;;;;;;;;;;;;;;;27.42;40.95;97377.41;5069434;28;1328;-89
2021/08/20 05:03:26;;;;;;;;;;;;;;;27.54;40.71;97373.66;5068917;28;1274;-89
2021/08/20 05:05:51;;;;;;;;;;;;;;;27.50;40.76;97372.28;5066492;28;1478;-89
2021/08/20 05:08:16;;;;;;;;;;;;;;;27.44;40.92;97373.66;5070788;28;1041;-90
2021/08/20 05:10:41;;;;;;;;;;;;;;;27.34;41.14;97375.44;5071579;28;1280;-90
2021/08/20 05:13:07;;;;;;;;;;;;;;;27.39;40.92;97375.84;5068882;28;1604;-90
2021/08/20 05:15:32;;;;;;;;;;;;;;;27.37;41.26;97372.53;5052411;28;1304;-90
2021/08/20 05:17:57;;;;;;;;;;;;;;;27.27;41.43;97376.97;5068895;28;1942;-89
2021/08/20 05:20:23;;;;;;;;;;;;;;;27.28;41.42;97378.63;5070270;28;1029;-89
2021/08/20 05:22:48;;;;;;;;;;;;;;;27.43;40.86;97382.56;5068910;28;1625;-89
2021/08/20 05:25:14;;;;;;;;;;;;;;;27.38;41.01;97381.28;5071837;28;1215;-90
2021/08/20 05:27:39;;;;;;;;;;;;;;;27.62;40.31;97375.63;5034735;28;1534;-90
2021/08/20 05:30:05;;;;;;;;;;;;;;;27.45;40.79;97377.97;5071050;28;1327;-90
2021/08/20 05:32:30;;;;;;;;;;;;;;;27.27;41.14;97371.66;5073924;28;1120;-89
2021/08/20 05:34:55;;;;;;;;;;;;;;;27.51;41.13;97374.78;5071414;28;1306;-89
2021/08/20 05:37:20;;;;;;;;;;;;;;;27.38;41.21;97383.94;5047722;28;1875;-90
2021/08/20 05:39:46;;;;;;;;;;;;;;;27.53;40.94;97393.19;5051292;28;1205;-89
2021/08/20 05:42:11;;;;;;;;;;;;;;;27.54;40.75;97408.94;5070573;28;1542;-89
2021/08/20 05:44:36;;;;;;;;;;;;;;;27.67;40.45;97423.78;5070696;28;1221;-89
2021/08/20 05:47:01;;;;;;;;;;;;;;;27.93;39.88;97419.59;5067553;28;1511;-89
2021/08/20 05:49:27;;;;;;;;;;;;;;;27.62;40.50;97424.13;5055682;28;1137;-89
2021/08/20 05:51:52;;;;;;;;;;;;;;;27.47;41.11;97414.91;5073636;28;1534;-90
2021/08/20 05:54:20;;;;;;;;;;;;;;;27.42;41.16;97428.56;5075467;28;1412;-90
2021/08/20 05:56:45;;;;;;;;;;;;;;;27.61;40.81;97422.47;5075682;28;2005;-89
2021/08/20 05:59:10;;;;;;;;;;;;;;;27.55;40.67;97415.91;5072316;28;1628;-89
2021/08/20 06:01:35;;;;;;;;;;;;;;;27.68;40.55;97420.97;5073067;28;1812;-90
2021/08/20 06:04:00;;;;;;;;;;;;;;;27.59;40.66;97418.28;5071964;28;1275;-90
2021/08/20 06:06:26;;;;;;;;;;;;;;;27.37;40.86;97419.34;5070427;28;1553;-89
2021/08/20 06:08:51;;;;;;;;;;;;;;;27.35;41.17;97418.66;5069017;28;1246;-89
2021/08/20 06:11:16;;;;;;;;;;;;;;;27.19;41.59;97417.34;5065245;28;1304;-88
2021/08/20 06:13:43;;;;;;;;;;;;;;;27.29;41.34;97421.84;5065998;28;1608;-90
2021/08/20 06:16:08;;;;;;;;;;;;;;;27.29;41.17;97417.38;5063906;28;1458;-89
2021/08/20 06:18:34;;;;;;;;;;;;;;;27.06;41.68;97413.25;5066752;28;1932;-89
2021/08/20 06:20:59;;;;;;;;;;;;;;;27.32;41.30;97406.50;5029857;28;1570;-88
2021/08/20 06:23:25;;;;;;;;;;;;;;;27.30;41.16;97418.22;5049575;28;1165;-89
2021/08/20 06:25:50;;;;;;;;;;;;;;;27.66;40.68;97420.25;5065698;28;1356;-89
2021/08/20 06:28:15;;;;;;;;;;;;;;;27.49;40.90;97407.66;5064868;28;1561;-89
2021/08/20 06:30:45;;;;;;;;;;;;;;;27.43;40.87;97413.53;5067944;28;1351;-90
2021/08/20 06:33:11;;;;;;;;;;;;;;;27.79;40.22;97422.66;5065967;28;1092;-90
2021/08/20 06:35:36;;;;;;;;;;;;;;;27.26;41.20;97420.31;5065261;28;1700;-89
2021/08/20 06:38:01;;;;;;;;;;;;;;;27.59;40.66;97419.13;5064963;28;1906;-90
2021/08/20 06:40:26;;;;;;;;;;;;;;;27.38;41.20;97415.72;5051658;28;1274;-89
2021/08/20 06:42:52;;;;;;;;;;;;;;;27.23;41.35;97418.75;5068342;28;1534;-89
2021/08/20 06:45:17;;;;;;;;;;;;;;;27.47;40.90;97431.63;5070416;28;1252;-89
2021/08/20 06:47:42;;;;;;;;;;;;;;;27.58;40.42;97425.41;5070763;28;1347;-90
2021/08/20 06:50:08;;;;;;;;;;;;;;;27.44;40.99;97428.44;5070528;28;1135;-89
2021/08/20 06:52:33;;;;;;;;;;;;;;;27.40;41.11;97429.66;5065334;28;1676;-89
2021/08/20 06:55:01;;;;;;;;;;;;;;;27.50;40.89;97426.09;5067224;28;1287;-89
2021/08/20 06:57:26;;;;;;;;;;;;;;;26.96;41.97;97421.13;5065143;28;1910;-89
2021/08/20 06:59:51;;;;;;;;;;;;;;;27.34;41.12;97428.41;5072271;28;1183;-89
2021/08/20 07:02:17;;;;;;;;;;;;;;;27.39;40.97;97428.81;5047877;28;1321;-90
2021/08/20 07:04:42;;;;;;;;;;;;;;;27.36;41.25;97425.63;5073066;28;1377;-89
2021/08/20 07:07:07;;;;;;;;;;;;;;;27.37;41.21;97424.66;5078807;28;1557;-89
2021/08/20 07:09:34;;;;;;;;;;;;;;;27.23;41.15;97424.03;5081229;28;1487;-89
2021/08/20 07:11:59;;;;;;;;;;;;;;;27.36;41.05;97426.47;5078441;28;978;-89
2021/08/20 07:14:24;;;;;;;;;;;;;;;27.41;41.07;97418.97;5075080;28;1538;-89
2021/08/20 07:16:50;;;;;;;;;;;;;;;26.98;42.01;97424.47;5082557;28;1891;-90
2021/08/20 07:19:15;;;;;;;;;;;;;;;27.53;40.91;97432.91;5085518;28;1462;-89
2021/08/20 07:21:40;;;;;;;;;;;;;;;27.34;41.30;97438.16;5087534;28;1310;-89
2021/08/20 07:24:05;;;;;;;;;;;;;;;27.45;40.87;97446.81;5083621;28;1494;-88
2021/08/20 07:26:30;;;;;;;;;;;;;;;27.16;41.60;97448.53;5084676;28;1325;-90
2021/08/20 07:28:56;;;;;;;;;;;;;;;27.11;41.86;97448.94;5085176;28;1443;-89
2021/08/20 07:31:21;;;;;;;;;;;;;;;27.29;41.15;97437.72;5086210;28;1140;-89
2021/08/20 07:33:46;;;;;;;;;;;;;;;27.15;41.76;97439.75;5085366;28;1102;-89
2021/08/20 07:36:11;;;;;;;;;;;;;;;27.30;41.13;97444.69;5081425;28;1572;-89
2021/08/20 07:38:38;;;;;;;;;;;;;;;27.13;41.70;97441.72;5087501;28;1886;-89
2021/08/20 07:41:03;;;;;;;;;;;;;;;26.93;42.06;97443.38;5079067;28;1504;-90
2021/08/20 07:43:28;;;;;;;;;;;;;;;27.06;42.04;97442.38;5086906;28;1491;-89
2021/08/20 07:45:55;;;;;;;;;;;;;;;26.96;42.04;97440.50;5085212;28;1382;-90
2021/08/20 07:48:20;;;;;;;;;;;;;;;27.34;41.07;97441.66;5084638;28;1072;-89
2021/08/20 07:50:46;;;;;;;;;;;;;;;27.06;41.65;97437.06;5084104;28;1147;-89
2021/08/20 07:53:11;;;;;;;;;;;;;;;27.30;41.50;97447.34;5084551;28;1526;-89
2021/08/20 07:55:36;;;;;;;;;;;;;;;27.33;41.31;97450.53;5085688;28;1324;-89
2021/08/20 07:58:02;;;;;;;;;;;;;;;27.44;40.88;97452.25;5082858;28;1891;-89
2021/08/20 08:00:27;;;;;;;;;;;;;;;27.17;41.75;97448.41;5065960;28;1331;-89
2021/08/20 08:02:53;;;;;;;;;;;;;;;27.20;41.24;97456.09;5085160;28;1203;-90
2021/08/20 08:05:18;;;;;;;;;;;;;;;27.45;40.99;97451.28;5085124;28;1352;-89
2021/08/20 08:07:43;;;;;;;;;;;;;;;27.13;41.39;97447.00;5077955;28;1721;-89
2021/08/20 08:10:09;;;;;;;;;;;;;;;26.93;42.03;97456.63;5076365;28;1208;-90
2021/08/20 08:12:34;;;;;;;;;;;;;;;26.98;41.93;97459.72;5076282;28;1506;-89
2021/08/20 08:14:59;;;;;;;;;;;;;;;27.76;39.99;97468.00;5061830;28;1399;-84
2021/08/20 08:17:24;;;;;;;;;;;;;;;28.84;37.83;97457.22;5057542;28;2022;-83
2021/08/20 08:19:49;;;;;;;;;;;;;;;28.38;38.88;97458.00;5059438;28;1057;-82
2021/08/20 08:22:14;;;;;;;;;;;;;;;28.20;39.35;97460.47;5042353;28;1156;-83
2021/08/20 08:24:40;;;;;;;;;;;;;;;27.97;40.13;97470.53;5043948;28;1333;-85
2021/08/20 08:27:05;;;;;;;;;;;;;;;27.93;39.88;97471.78;5040143;28;1535;-85
2021/08/20 08:29:30;;;;;;;;;;;;;;;28.22;39.28;97475.28;5037231;28;1631;-84
2021/08/20 08:31:55;;;;;;;;;;;;;;;28.09;40.04;97480.84;5038951;28;1180;-84
2021/08/20 08:34:21;;;;;;;;;;;;;;;28.33;39.51;97482.28;5057194;28;1343;-84
2021/08/20 08:36:46;;;;;;;;;;;;;;;28.59;39.05;97479.88;5057719;28;1910;-84
2021/08/20 08:39:11;;;;;;;;;;;;;;;28.33;39.39;97477.81;5057670;28;1594;-83
2021/08/20 08:41:36;;;;;;;;;;;;;;;28.55;38.85;97482.00;5043070;28;1762;-83
2021/08/20 08:44:01;;;;;;;;;;;;;;;28.46;39.15;97484.66;5038906;28;1586;-84
2021/08/20 08:46:27;;;;;;;;;;;;;;;28.28;39.12;97487.13;5024242;28;1299;-84
2021/08/20 08:48:52;;;;;;;;;;;;;;;28.25;39.82;97482.13;5022351;28;1534;-84
2021/08/20 08:51:20;;;;;;;;;;;;;;;28.53;39.14;97489.28;5040092;28;1628;-85
2021/08/20 08:53:46;;;;;;;;;;;;;;;28.61;38.97;97486.75;5035676;28;1635;-84
2021/08/20 08:56:11;;;;;;;;;;;;;;;28.56;39.10;97490.78;5039032;28;1386;-84
2021/08/20 08:58:37;;;;;;;;;;;;;;;28.40;39.38;97504.63;5022501;28;1986;-82
2021/08/20 09:01:22;;;;;;;;;;;;;;;28.64;38.70;97506.84;5059187;28;1024;-84
2021/08/20 09:03:48;;;;;;;;;;;;;;;28.63;38.50;97500.69;5045186;28;2000;-85
2021/08/20 09:06:13;;;;;;;;;;;;;;;28.76;38.51;97494.28;5037431;28;1852;-85
2021/08/20 09:08:38;;;;;;;;;;;;;;;28.69;38.40;97498.47;5040631;28;1334;-85
2021/08/20 09:11:06;;;;;;;;;;;;;;;28.52;39.01;97508.00;5044491;28;1044;-84
2021/08/20 09:13:31;;;;;;;;;;;;;;;28.60;38.85;97506.31;5058086;28;1557;-85
2021/08/20 09:16:04;;;;;;;;;;;;;;;28.71;38.59;97499.16;5039976;28;1319;-86
2021/08/20 09:18:29;;;;;;;;;;;;;;;28.70;38.32;97500.97;5052540;28;1981;-86
2021/08/20 09:20:54;;;;;;;;;;;;;;;28.78;38.26;97494.97;5058830;28;1152;-86
2021/08/20 09:23:21;;;;;;;;;;;;;;;28.73;38.46;97505.16;5057317;28;1274;-86
2021/08/20 09:25:46;;;;;;;;;;;;;;;28.76;38.42;97504.88;5041544;28;1394;-85
2021/08/20 09:28:20;;;;;;;;;;;;;;;28.48;39.08;97502.09;5023502;28;1580;-86
2021/08/20 09:30:55;;;;;;;;;;;;;;;28.68;38.68;97500.28;5057020;28;1380;-87
2021/08/20 09:33:21;;;;;;;;;;;;;;;28.83;38.39;97496.19;5057852;28;1183;-86
2021/08/20 09:35:46;;;;;;;;;;;;;;;28.67;38.87;97492.44;5054790;28;1712;-86
2021/08/20 09:38:12;;;;;;;;;;;;;;;28.65;38.60;97496.09;5038470;28;1982;-86
2021/08/20 09:40:37;;;;;;;;;;;;;;;28.61;38.93;97484.09;5057309;28;1215;-86
2021/08/20 09:43:09;;;;;;;;;;;;;;;28.55;39.11;97482.00;5037086;28;1527;-87
2021/08/20 09:45:38;;;;;;;;;;;;;;;28.56;38.82;97478.38;5055800;28;1306;-87
2021/08/20 09:48:05;;;;;;;;;;;;;;;28.69;38.77;97477.25;5019104;28;1514;-88
2021/08/20 09:50:40;;;;;;;;;;;;;;;28.62;38.94;97477.81;5039010;28;1097;-86
2021/08/20 09:53:12;;;;;;;;;;;;;;;28.65;38.80;97472.19;5055094;28;1332;-87
2021/08/20 09:55:38;;;;;;;;;;;;;;;28.60;39.03;97474.47;5057758;28;1264;-86
2021/08/20 09:58:04;;;;;;;;;;;;;;;28.70;38.78;97468.28;5038251;28;1902;-86
2021/08/20 10:00:30;;;;;;;;;;;;;;;28.61;38.88;97465.53;5035983;28;1357;-87
2021/08/20 10:02:55;;;;;;;;;;;;;;;28.58;38.96;97460.47;5057829;28;1147;-87
2021/08/20 10:05:20;;;;;;;;;;;;;;;28.68;38.88;97451.69;5026780;28;1596;-86
2021/08/20 10:07:45;;;;;;;;;;;;;;;28.79;38.68;97451.50;5040082;28;1486;-86
2021/08/20 10:10:10;;;;;;;;;;;;;;;28.79;38.83;97451.50;5061542;28;1172;-86
2021/08/20 10:12:37;;;;;;;;;;;;;;;28.56;39.06;97462.44;5038413;28;1508;-86
2021/08/20 10:15:03;;;;;;;;;;;;;;;28.67;38.87;97464.09;5060803;28;1902;-85
2021/08/20 10:17:28;;;;;;;;;;;;;;;28.75;38.83;97455.41;5041808;28;1967;-86
2021/08/20 10:19:53;;;;;;;;;;;;;;;28.76;38.95;97457.13;5038652;28;1622;-87
2021/08/20 10:22:19;;;;;;;;;;;;;;;28.68;38.79;97449.88;5046763;28;1497;-86
2021/08/20 10:24:44;;;;;;;;;;;;;;;28.61;38.81;97460.22;5060333;28;1386;-86
2021/08/20 10:27:10;;;;;;;;;;;;;;;28.67;38.95;97448.16;5062160;28;1463;-86
2021/08/20 10:29:37;;;;;;;;;;;;;;;28.50;39.47;97455.03;5041873;28;1023;-87
2021/08/20 10:32:04;;;;;;;;;;;;;;;28.63;39.00;97457.41;5040647;28;1410;-86
2021/08/20 10:34:29;;;;;;;;;;;;;;;28.65;38.89;97456.28;5042391;28;1373;-87
2021/08/20 10:37:02;;;;;;;;;;;;;;;28.56;39.35;97458.94;5057174;28;1918;-86
